Time;durP1;ratioP1;P1;durP2;ratioP2;P2;SDS_P1;SDS_P2;PMS_P1;PMS_P2;Temp;Humidity;BMP_temperature;BMP_pressure;BME280_temperature;BME280_humidity;BME280_pressure;Samples;Min_cycle;Max_cycle;Signal;HPM_P1;HPM_P2
2021/11/23 00:00:55;;;;;;;14.43;13.05;;;;;;;8.83;56.49;96045.59;4994889;28;20069;-65
2021/11/23 00:03:20;;;;;;;14.80;13.50;;;;;;;8.88;56.16;96048.22;4991434;28;20110;-64
2021/11/23 00:05:48;;;;;;;16.17;13.57;;;;;;;8.82;56.79;96052.75;4991551;28;20416;-63
2021/11/23 00:08:14;;;;;;;13.40;12.10;;;;;;;9.18;55.46;96041.22;4992951;28;20389;-64
2021/11/23 00:10:41;;;;;;;14.50;13.10;;;;;;;8.84;56.51;96063.88;4991392;28;20494;-63
2021/11/23 00:13:08;;;;;;;13.80;12.40;;;;;;;8.64;57.10;96066.59;4992637;28;20030;-64
2021/11/23 00:15:35;;;;;;;13.90;12.55;;;;;;;8.56;56.77;96057.31;4995971;28;20177;-66
2021/11/23 00:18:02;;;;;;;14.77;13.00;;;;;;;8.45;57.18;96065.56;4995186;28;20057;-65
2021/11/23 00:20:27;;;;;;;13.27;11.88;;;;;;;8.05;58.45;96069.78;4992330;28;20029;-65
2021/11/23 00:22:54;;;;;;;14.00;12.60;;;;;;;8.08;57.67;96067.38;4992481;28;20034;-67
2021/11/23 00:25:20;;;;;;;14.82;13.35;;;;;;;8.19;58.02;96060.25;4992632;28;20026;-64
2021/11/23 00:27:45;;;;;;;14.55;13.23;;;;;;;8.56;56.82;96065.28;4992570;28;20022;-65
2021/11/23 00:30:10;;;;;;;14.52;12.88;;;;;;;8.63;56.00;96070.31;4993874;28;20032;-65
2021/11/23 00:32:36;;;;;;;14.05;12.75;;;;;;;8.38;56.78;96059.72;4991854;28;20033;-65
2021/11/23 00:35:01;;;;;;;14.60;13.10;;;;;;;8.87;56.05;96067.06;4992453;28;20022;-65
2021/11/23 00:37:27;;;;;;;12.75;11.50;;;;;;;8.16;57.12;96063.44;4992218;28;20042;-64
2021/11/23 00:39:52;;;;;;;14.27;12.88;;;;;;;8.14;57.63;96051.50;4990447;28;20451;-64
2021/11/23 00:42:18;;;;;;;13.25;11.85;;;;;;;8.52;56.33;96050.97;4990664;28;20031;-65
2021/11/23 00:44:43;;;;;;;13.80;12.50;;;;;;;8.24;56.99;96057.59;4993121;28;20033;-65
2021/11/23 00:47:08;;;;;;;13.48;12.07;;;;;;;8.32;57.09;96072.16;4996200;28;20030;-63
2021/11/23 00:49:34;;;;;;;13.98;12.30;;;;;;;8.13;57.26;96079.06;4991659;28;20030;-64
2021/11/23 00:51:59;;;;;;;14.98;13.48;;;;;;;8.38;57.05;96079.06;4990492;28;20022;-64
2021/11/23 00:54:25;;;;;;;14.25;12.85;;;;;;;8.52;56.43;96071.38;4990671;28;20362;-65
2021/11/23 00:56:50;;;;;;;14.52;13.02;;;;;;;8.21;56.88;96074.03;4991971;28;20110;-64
2021/11/23 00:59:15;;;;;;;14.45;12.95;;;;;;;7.93;57.51;96080.63;4991036;28;20642;-64
2021/11/23 01:01:41;;;;;;;13.32;12.13;;;;;;;8.16;56.83;96074.03;4993941;28;20030;-64
2021/11/23 01:04:06;;;;;;;14.20;12.80;;;;;;;8.08;57.16;96071.91;4990399;28;20117;-64
2021/11/23 01:06:32;;;;;;;13.40;12.02;;;;;;;7.71;57.50;96083.53;4991738;28;20472;-64
2021/11/23 01:08:57;;;;;;;15.00;12.77;;;;;;;8.27;56.45;96067.66;4991200;28;20495;-63
2021/11/23 01:11:22;;;;;;;14.20;12.68;;;;;;;8.18;56.79;96079.84;4991711;28;20023;-65
2021/11/23 01:13:49;;;;;;;13.70;12.40;;;;;;;8.07;56.82;96080.91;4992079;28;20489;-65
2021/11/23 01:16:15;;;;;;;13.52;12.25;;;;;;;8.34;56.34;96084.13;4995740;28;20459;-65
2021/11/23 01:18:42;;;;;;;14.18;12.68;;;;;;;8.27;56.48;96090.72;4991930;28;20034;-65
2021/11/23 01:21:09;;;;;;;14.50;12.43;;;;;;;8.14;56.11;96093.88;4991658;28;20062;-64
2021/11/23 01:23:35;;;;;;;15.07;12.77;;;;;;;7.69;57.47;96098.09;4989712;28;20019;-65
2021/11/23 01:26:00;;;;;;;13.90;12.50;;;;;;;7.17;58.64;96099.78;4991312;28;20564;-65
2021/11/23 01:28:26;;;;;;;13.35;12.05;;;;;;;7.69;57.09;96087.50;4991200;28;20037;-65
2021/11/23 01:30:52;;;;;;;15.18;13.68;;;;;;;8.00;56.49;96085.69;4994083;28;20022;-62
2021/11/23 01:33:18;;;;;;;12.93;11.73;;;;;;;8.09;56.25;96086.75;4994435;28;20026;-64
2021/11/23 01:35:44;;;;;;;15.32;13.40;;;;;;;8.32;55.70;96090.72;4989692;28;20077;-64
2021/11/23 01:38:10;;;;;;;14.82;13.43;;;;;;;8.08;55.87;96093.88;4991180;28;20066;-64
2021/11/23 01:40:36;;;;;;;15.88;13.15;;;;;;;8.20;55.89;96106.09;4990607;28;20027;-65
2021/11/23 01:43:05;;;;;;;14.23;12.60;;;;;;;8.51;54.63;96085.72;4990790;28;20031;-65
2021/11/23 01:45:32;;;;;;;16.40;12.68;;;;;;;7.98;55.95;96101.81;4990303;28;20169;-65
2021/11/23 01:47:58;;;;;;;18.30;14.10;;;;;;;7.86;56.06;96074.00;4994176;28;20033;-65
2021/11/23 01:50:23;;;;;;;13.55;12.15;;;;;;;7.78;56.91;96092.03;4982208;28;20027;-64
2021/11/23 01:52:49;;;;;;;14.32;12.90;;;;;;;7.70;56.48;96103.13;4990555;28;20484;-64
2021/11/23 01:55:14;;;;;;;14.57;11.68;;;;;;;7.40;56.00;96100.38;4990720;28;20018;-64
2021/11/23 01:57:41;;;;;;;13.20;11.90;;;;;;;7.80;55.78;96087.25;4990184;28;20058;-64
2021/11/23 02:00:10;;;;;;;13.23;11.82;;;;;;;7.14;56.89;96099.50;4989675;28;20033;-65
2021/11/23 02:02:35;;;;;;;13.07;11.43;;;;;;;7.38;56.89;96105.16;4993959;28;20037;-64
2021/11/23 02:05:01;;;;;;;12.85;11.43;;;;;;;7.45;56.04;96076.59;4990509;28;20022;-64
2021/11/23 02:07:26;;;;;;;12.85;11.38;;;;;;;7.35;55.70;96100.38;4990642;28;20041;-65
2021/11/23 02:09:52;;;;;;;13.27;11.75;;;;;;;7.53;55.52;96068.94;4990335;28;20022;-65
2021/11/23 02:12:19;;;;;;;13.13;11.73;;;;;;;7.25;55.82;96098.47;4990224;28;20387;-64
2021/11/23 02:14:45;;;;;;;12.48;11.27;;;;;;;7.43;55.63;96103.31;4989839;28;20472;-64
2021/11/23 02:17:10;;;;;;;14.32;12.73;;;;;;;7.31;55.88;96115.97;4993868;28;20030;-64
2021/11/23 02:19:35;;;;;;;13.98;12.23;;;;;;;7.29;55.37;96113.59;4989846;28;20431;-64
2021/11/23 02:22:01;;;;;;;13.15;11.68;;;;;;;7.70;55.28;96108.41;4990120;28;20476;-66
2021/11/23 02:24:27;;;;;;;11.85;10.65;;;;;;;7.32;56.00;96114.94;4990272;28;20030;-65
2021/11/23 02:26:52;;;;;;;13.18;11.70;;;;;;;7.16;55.81;96115.91;4988904;28;20038;-66
2021/11/23 02:29:18;;;;;;;14.40;11.30;;;;;;;7.49;55.94;96109.41;4989419;28;20030;-65
2021/11/23 02:31:44;;;;;;;13.35;11.95;;;;;;;7.42;55.46;96103.56;4991542;28;20034;-65
2021/11/23 02:34:11;;;;;;;13.60;11.02;;;;;;;7.50;55.37;96103.84;4991892;28;20492;-65
2021/11/23 02:36:38;;;;;;;14.55;11.68;;;;;;;7.51;55.75;96102.00;4990236;28;20058;-67
2021/11/23 02:39:04;;;;;;;12.93;11.63;;;;;;;7.70;55.33;96100.47;4989824;28;20044;-64
2021/11/23 02:41:30;;;;;;;12.98;11.73;;;;;;;7.63;55.23;96104.44;4989815;28;20018;-65
2021/11/23 02:43:57;;;;;;;14.00;12.18;;;;;;;7.55;55.74;96100.44;4990103;28;20030;-65
2021/11/23 02:46:22;;;;;;;13.35;12.05;;;;;;;7.95;54.84;96098.94;4991910;28;20022;-64
2021/11/23 02:48:48;;;;;;;13.35;12.00;;;;;;;7.51;54.66;96068.38;4988381;28;20552;-66
2021/11/23 02:51:15;;;;;;;13.25;11.85;;;;;;;7.78;54.84;96107.91;4989553;28;20125;-64
2021/11/23 02:53:45;;;;;;;12.30;11.10;;;;;;;7.65;55.18;96104.97;4989810;28;20019;-64
2021/11/23 02:56:12;;;;;;;13.13;11.75;;;;;;;7.76;54.68;96096.78;4988768;28;20022;-65
2021/11/23 02:58:38;;;;;;;14.68;12.05;;;;;;;7.75;54.88;96100.47;4989948;28;20065;-64
2021/11/23 03:01:07;;;;;;;12.98;11.73;;;;;;;7.44;55.22;96106.75;4988935;28;20643;-64
2021/11/23 03:03:32;;;;;;;12.82;11.30;;;;;;;7.66;54.84;96107.34;4988144;28;20026;-64
2021/11/23 03:05:58;;;;;;;13.32;12.02;;;;;;;8.08;54.46;96104.50;4988663;28;20029;-64
2021/11/23 03:08:25;;;;;;;12.10;11.00;;;;;;;8.16;54.08;96111.13;4991963;28;20026;-65
2021/11/23 03:10:51;;;;;;;13.93;12.55;;;;;;;8.08;54.21;96096.53;4993462;28;20086;-65
2021/11/23 03:13:16;;;;;;;12.63;11.43;;;;;;;8.55;53.47;96100.03;4993387;28;20026;-65
2021/11/23 03:15:42;;;;;;;13.93;12.43;;;;;;;8.47;52.90;96104.00;4994413;28;20033;-64
2021/11/23 03:18:09;;;;;;;13.27;11.98;;;;;;;8.19;53.49;96100.00;4994539;28;20034;-64
2021/11/23 03:20:36;;;;;;;12.65;11.38;;;;;;;7.63;54.90;96109.75;4992903;28;20369;-64
2021/11/23 03:23:03;;;;;;;12.95;11.73;;;;;;;7.96;54.57;96103.97;4993572;28;20047;-64
2021/11/23 03:25:28;;;;;;;13.20;11.90;;;;;;;8.05;53.81;96069.78;4993522;28;20412;-64
2021/11/23 03:27:54;;;;;;;14.38;12.73;;;;;;;7.94;54.27;96103.44;4993497;28;20065;-65
2021/11/23 03:30:24;;;;;;;13.35;12.05;;;;;;;8.21;53.82;96108.50;4992468;28;20109;-64
2021/11/23 03:32:53;;;;;;;13.77;12.43;;;;;;;8.12;53.57;96088.88;4996830;28;20631;-64
2021/11/23 03:35:20;;;;;;;14.15;12.70;;;;;;;8.26;53.70;96105.03;4991849;28;20057;-65
2021/11/23 03:37:47;;;;;;;13.73;12.35;;;;;;;8.64;52.68;96094.97;4993513;28;20097;-64
2021/11/23 03:40:14;;;;;;;13.40;12.00;;;;;;;8.39;52.65;96098.44;4992898;28;20022;-64
2021/11/23 03:42:40;;;;;;;13.48;12.00;;;;;;;8.24;52.75;96097.38;4993032;28;20033;-64
2021/11/23 03:45:06;;;;;;;13.68;12.27;;;;;;;8.11;53.75;96120.94;4992827;28;20026;-64
2021/11/23 03:47:33;;;;;;;13.35;12.05;;;;;;;8.22;53.04;96118.03;4996936;28;20022;-65
2021/11/23 03:49:59;;;;;;;14.32;12.63;;;;;;;7.82;54.23;96130.16;4995779;28;20037;-65
2021/11/23 03:52:25;;;;;;;14.35;12.95;;;;;;;7.95;54.03;96123.56;4993108;28;20030;-65
2021/11/23 03:54:51;;;;;;;13.80;12.50;;;;;;;7.42;55.49;96116.78;4993147;28;20529;-65
2021/11/23 03:57:16;;;;;;;14.68;13.20;;;;;;;7.53;55.63;96110.50;4993611;28;20018;-64
2021/11/23 03:59:46;;;;;;;15.65;14.00;;;;;;;7.92;54.49;96107.38;4992237;28;20117;-64
2021/11/23 04:02:12;;;;;;;16.33;14.30;;;;;;;7.47;54.89;96096.47;4995483;28;20387;-65
2021/11/23 04:04:38;;;;;;;16.00;14.40;;;;;;;7.72;54.27;96106.28;4992837;28;20369;-65
2021/11/23 04:07:04;;;;;;;16.75;14.48;;;;;;;7.56;54.55;96092.22;4992993;28;20121;-66
2021/11/23 04:09:29;;;;;;;17.50;15.63;;;;;;;7.71;55.13;96106.56;4992649;28;20030;-64
2021/11/23 04:11:54;;;;;;;18.80;15.02;;;;;;;7.97;54.04;96102.09;4991150;28;20539;-64
2021/11/23 04:14:20;;;;;;;17.83;14.65;;;;;;;7.99;54.08;96094.69;4992809;28;20053;-63
2021/11/23 04:16:45;;;;;;;16.77;14.98;;;;;;;8.20;53.57;96114.84;4995867;28;20041;-64
2021/11/23 04:19:11;;;;;;;23.27;16.00;;;;;;;8.11;53.71;96107.69;4995043;28;20042;-63
2021/11/23 04:21:36;;;;;;;17.00;14.80;;;;;;;8.34;53.67;96115.91;4992200;28;20476;-63
2021/11/23 04:24:01;;;;;;;18.48;15.75;;;;;;;8.59;53.26;96106.38;4992668;28;20030;-64
2021/11/23 04:26:27;;;;;;;15.85;14.23;;;;;;;8.65;52.98;96113.28;4992557;28;20545;-64
2021/11/23 04:28:52;;;;;;;17.63;15.80;;;;;;;8.62;52.46;96089.16;4992296;28;20535;-63
2021/11/23 04:31:17;;;;;;;16.60;14.90;;;;;;;8.58;52.22;96105.56;4995353;28;20029;-65
2021/11/23 04:33:43;;;;;;;17.13;15.35;;;;;;;8.75;51.99;96105.31;4995644;28;20105;-65
2021/11/23 04:36:08;;;;;;;17.50;15.73;;;;;;;8.79;52.31;96095.72;4992187;28;20023;-64
2021/11/23 04:38:33;;;;;;;16.33;14.63;;;;;;;8.81;52.32;96096.28;4992059;28;20116;-63
2021/11/23 04:40:59;;;;;;;16.80;14.75;;;;;;;8.89;52.11;96113.47;4991840;28;20403;-64
2021/11/23 04:43:24;;;;;;;17.80;15.10;;;;;;;8.82;52.04;96105.03;4991942;28;20038;-64
2021/11/23 04:45:50;;;;;;;16.67;14.98;;;;;;;8.57;52.44;96108.50;4994181;28;20030;-64
2021/11/23 04:48:16;;;;;;;16.90;15.10;;;;;;;8.06;53.68;96113.78;4992664;28;20036;-64
2021/11/23 04:50:41;;;;;;;17.40;15.52;;;;;;;8.22;53.51;96120.66;4991401;28;20041;-64
2021/11/23 04:53:08;;;;;;;17.08;15.27;;;;;;;7.69;55.16;96106.03;4991281;28;20105;-64
2021/11/23 04:55:34;;;;;;;18.50;15.52;;;;;;;7.79;54.73;96114.81;4991868;28;20202;-64
2021/11/23 04:58:00;;;;;;;16.85;15.05;;;;;;;8.01;54.30;96119.06;4990435;28;20416;-64
2021/11/23 05:00:26;;;;;;;16.77;15.00;;;;;;;7.94;54.15;96121.97;4990827;28;20049;-63
2021/11/23 05:02:51;;;;;;;17.25;13.90;;;;;;;8.17;53.91;96125.97;4993718;28;20022;-64
2021/11/23 05:05:17;;;;;;;16.27;14.65;;;;;;;8.14;53.75;96138.94;4991742;28;20118;-64
2021/11/23 05:07:43;;;;;;;16.83;14.15;;;;;;;8.00;53.82;96136.03;4991670;28;20392;-64
2021/11/23 05:10:10;;;;;;;16.05;14.35;;;;;;;7.76;54.74;96149.75;4991182;28;20034;-66
2021/11/23 05:12:36;;;;;;;18.48;14.77;;;;;;;8.11;53.97;96156.19;4991245;28;20019;-64
2021/11/23 05:15:03;;;;;;;17.17;14.75;;;;;;;7.90;54.10;96136.00;4989797;28;20025;-64
2021/11/23 05:17:28;;;;;;;16.10;14.40;;;;;;;8.00;53.57;96133.38;4995134;28;20092;-65
2021/11/23 05:19:54;;;;;;;16.88;13.93;;;;;;;7.96;53.75;96137.59;4994734;28;20027;-64
2021/11/23 05:22:20;;;;;;;16.70;14.90;;;;;;;8.28;52.87;96146.13;4991225;28;20376;-64
2021/11/23 05:24:45;;;;;;;18.85;14.93;;;;;;;8.39;52.75;96127.59;4991522;28;20033;-64
2021/11/23 05:27:10;;;;;;;15.68;14.18;;;;;;;8.23;52.83;96154.06;4990653;28;20023;-64
2021/11/23 05:29:36;;;;;;;16.63;14.05;;;;;;;8.64;52.20;96166.56;4991077;28;20039;-65
2021/11/23 05:32:01;;;;;;;17.48;14.48;;;;;;;8.74;51.75;96153.31;4989399;28;20137;-64
2021/11/23 05:34:27;;;;;;;16.10;13.60;;;;;;;7.81;52.47;96104.72;4993144;28;20089;-62
2021/11/23 05:36:52;;;;;;;16.55;14.15;;;;;;;8.22;52.27;96147.19;4990933;28;20018;-67
2021/11/23 05:39:18;;;;;;;15.85;14.00;;;;;;;8.49;52.06;96173.47;4990529;28;20080;-66
2021/11/23 05:41:45;;;;;;;17.65;14.95;;;;;;;8.16;51.92;96166.78;4990931;28;20383;-67
2021/11/23 05:44:11;;;;;;;16.30;14.63;;;;;;;7.96;52.51;96156.16;4989470;28;20149;-62
2021/11/23 05:46:37;;;;;;;14.77;13.38;;;;;;;7.83;53.17;96160.09;4989794;28;20057;-63
2021/11/23 05:49:03;;;;;;;16.63;14.85;;;;;;;7.29;54.71;96163.88;4992874;28;20068;-63
2021/11/23 05:51:28;;;;;;;15.20;13.65;;;;;;;7.59;53.82;96158.97;4990447;28;20447;-64
2021/11/23 05:53:53;;;;;;;18.33;14.52;;;;;;;7.75;53.78;96164.03;4990577;28;20033;-62
2021/11/23 05:56:19;;;;;;;14.85;13.45;;;;;;;7.90;52.63;96133.38;4990572;28;20163;-61
2021/11/23 05:58:44;;;;;;;15.02;13.48;;;;;;;8.15;52.09;96154.59;4989209;28;20543;-66
2021/11/23 06:01:10;;;;;;;15.95;13.95;;;;;;;7.76;52.82;96157.69;4989606;28;20026;-64
2021/11/23 06:03:35;;;;;;;16.20;13.75;;;;;;;7.43;53.53;96160.75;4990310;28;20088;-64
2021/11/23 06:06:01;;;;;;;15.60;13.98;;;;;;;7.91;52.92;96146.34;4990456;28;20105;-66
2021/11/23 06:08:27;;;;;;;17.80;13.73;;;;;;;7.73;52.83;96160.88;4989136;28;20084;-67
2021/11/23 06:10:52;;;;;;;15.63;14.02;;;;;;;8.28;52.44;96167.31;4988688;28;20030;-66
2021/11/23 06:13:18;;;;;;;15.45;13.85;;;;;;;7.98;52.40;96161.97;4990279;28;20019;-66
2021/11/23 06:15:46;;;;;;;15.48;13.65;;;;;;;7.90;52.70;96158.00;4989785;28;20019;-64
2021/11/23 06:18:15;;;;;;;14.52;12.88;;;;;;;7.87;52.57;96177.06;4993972;28;20126;-65
2021/11/23 06:20:45;;;;;;;14.93;13.27;;;;;;;8.20;52.45;96181.09;4988509;28;20037;-65
2021/11/23 06:23:13;;;;;;;15.45;13.55;;;;;;;8.30;51.94;96177.69;4988958;28;20048;-65
2021/11/23 06:25:38;;;;;;;13.45;12.00;;;;;;;8.26;51.79;96173.97;4988852;28;20436;-64
2021/11/23 06:28:04;;;;;;;14.57;13.07;;;;;;;8.39;51.25;96183.25;4990329;28;20030;-65
2021/11/23 06:30:31;;;;;;;17.50;12.60;;;;;;;8.12;51.70;96178.16;4988027;28;20514;-64
2021/11/23 06:32:57;;;;;;;14.90;12.55;;;;;;;7.84;51.98;96177.59;4989914;28;20516;-65
2021/11/23 06:35:22;;;;;;;17.08;13.43;;;;;;;7.99;51.89;96174.97;4989871;28;20034;-65
2021/11/23 06:37:47;;;;;;;13.98;12.57;;;;;;;8.15;51.74;96182.97;4990194;28;20492;-65
2021/11/23 06:40:13;;;;;;;14.70;13.18;;;;;;;7.75;52.03;96190.53;4988483;28;20027;-65
2021/11/23 06:42:38;;;;;;;17.85;14.02;;;;;;;7.95;51.50;96191.66;4989224;28;20027;-64
2021/11/23 06:45:05;;;;;;;18.48;13.30;;;;;;;7.99;54.37;96211.28;4989917;28;20038;-61
2021/11/23 06:47:31;;;;;;;14.93;13.38;;;;;;;8.46;55.55;96207.69;4992985;28;20388;-61
2021/11/23 06:49:56;;;;;;;16.55;13.60;;;;;;;8.47;52.48;96191.50;4989186;28;20034;-59
2021/11/23 06:52:25;;;;;;;14.48;13.07;;;;;;;8.76;51.47;96214.84;4989487;28;20033;-59
2021/11/23 06:54:51;;;;;;;14.68;13.18;;;;;;;8.69;51.07;96216.97;4989841;28;20026;-59
2021/11/23 06:57:18;;;;;;;14.88;13.20;;;;;;;8.70;51.00;96219.38;4989922;28;20029;-60
2021/11/23 06:59:46;;;;;;;15.13;13.45;;;;;;;8.72;50.42;96211.94;4988526;28;20113;-59
2021/11/23 07:02:12;;;;;;;13.98;12.68;;;;;;;9.07;49.35;96229.69;4989677;28;20439;-67
2021/11/23 07:04:37;;;;;;;14.25;12.90;;;;;;;9.10;48.92;96223.84;4989137;28;20030;-67
2021/11/23 07:07:03;;;;;;;17.10;13.68;;;;;;;9.03;49.07;96236.59;4990237;28;20018;-64
2021/11/23 07:09:29;;;;;;;16.50;13.60;;;;;;;9.05;48.82;96239.75;4989403;28;20469;-64
2021/11/23 07:11:54;;;;;;;14.75;13.25;;;;;;;8.78;49.38;96221.47;4989650;28;20388;-64
2021/11/23 07:14:20;;;;;;;14.43;12.98;;;;;;;8.97;49.13;96236.88;4988464;28;20106;-65
2021/11/23 07:16:46;;;;;;;14.70;13.20;;;;;;;9.02;49.17;96244.84;4991748;28;20030;-63
2021/11/23 07:19:12;;;;;;;14.82;13.32;;;;;;;9.07;48.87;96236.88;4990915;28;20031;-64
2021/11/23 07:21:38;;;;;;;15.38;13.77;;;;;;;8.99;49.15;96243.50;4989629;28;20030;-64
2021/11/23 07:24:04;;;;;;;15.55;13.95;;;;;;;8.64;49.98;96248.78;4988415;28;20406;-64
2021/11/23 07:26:31;;;;;;;17.10;14.38;;;;;;;8.79;49.99;96260.19;4989851;28;20030;-65
2021/11/23 07:28:58;;;;;;;16.40;14.70;;;;;;;8.98;49.02;96249.06;4989530;28;20022;-67
2021/11/23 07:31:23;;;;;;;16.67;15.07;;;;;;;8.70;49.32;96250.38;4989340;28;20031;-64
2021/11/23 07:33:48;;;;;;;16.55;14.93;;;;;;;9.00;49.40;96223.06;4995632;28;20026;-67
2021/11/23 07:36:17;;;;;;;15.80;14.30;;;;;;;8.80;49.54;96248.56;4990865;28;20031;-65
2021/11/23 07:38:42;;;;;;;15.18;13.63;;;;;;;8.84;49.95;96254.91;4988388;28;20156;-64
2021/11/23 07:41:08;;;;;;;20.67;15.50;;;;;;;8.99;49.82;96259.41;4989514;28;20492;-65
2021/11/23 07:43:33;;;;;;;18.35;15.73;;;;;;;9.41;49.57;96252.19;4989491;28;20027;-66
2021/11/23 07:45:58;;;;;;;16.90;15.10;;;;;;;9.51;48.39;96246.88;4989238;28;20022;-66
2021/11/23 07:48:24;;;;;;;20.98;16.30;;;;;;;9.56;48.86;96221.09;4993397;28;20532;-65
2021/11/23 07:50:49;;;;;;;17.70;15.80;;;;;;;9.71;48.29;96257.44;4988821;28;20033;-64
2021/11/23 07:53:15;;;;;;;18.90;16.35;;;;;;;9.43;48.24;96264.16;4989269;28;20034;-67
2021/11/23 07:55:41;;;;;;;20.23;16.80;;;;;;;9.22;49.16;96246.69;4990648;28;20128;-69
2021/11/23 07:58:06;;;;;;;19.55;16.02;;;;;;;8.81;49.40;96225.47;4992098;28;20029;-67
2021/11/23 08:00:32;;;;;;;21.23;16.23;;;;;;;8.59;49.64;96192.03;4992724;28;20030;-73
2021/11/23 08:02:58;;;;;;;18.13;15.45;;;;;;;8.81;49.71;96247.50;4992303;28;20038;-66
2021/11/23 08:05:23;;;;;;;17.88;16.02;;;;;;;8.87;50.49;96252.78;4973289;28;20027;-70
2021/11/23 08:07:50;;;;;;;16.88;15.07;;;;;;;8.78;50.65;96253.31;4973307;28;20417;-69
2021/11/23 08:10:16;;;;;;;22.67;16.75;;;;;;;8.62;50.76;96259.66;4973133;28;20026;-67
2021/11/23 08:12:41;;;;;;;16.90;14.75;;;;;;;9.02;50.14;96253.59;4972781;28;20250;-61
2021/11/23 08:15:07;;;;;;;20.10;16.67;;;;;;;9.31;49.64;96240.53;4973174;28;20461;-66
2021/11/23 08:17:33;;;;;;;19.55;16.52;;;;;;;9.11;49.81;96256.50;4991123;28;20109;-66
2021/11/23 08:19:58;;;;;;;20.65;15.75;;;;;;;9.26;49.68;96259.13;4996136;28;20478;-67
2021/11/23 08:22:24;;;;;;;20.65;15.60;;;;;;;9.14;49.80;96263.13;4992431;28;20022;-68
2021/11/23 08:24:49;;;;;;;19.60;16.30;;;;;;;8.90;50.28;96262.84;4993291;28;20077;-69
2021/11/23 08:27:15;;;;;;;21.00;16.60;;;;;;;8.95;50.16;96260.22;4991951;28;20386;-72
2021/11/23 08:29:42;;;;;;;19.80;16.90;;;;;;;8.36;51.22;96252.72;4992907;28;20683;-70
2021/11/23 08:32:07;;;;;;;24.98;18.40;;;;;;;9.30;50.62;96267.34;4994579;28;20037;-69
2021/11/23 08:34:33;;;;;;;22.38;18.63;;;;;;;9.14;50.39;96266.56;4996597;28;20358;-71
2021/11/23 08:37:00;;;;;;;22.75;18.10;;;;;;;9.33;49.47;96259.66;4990971;28;20488;-72
2021/11/23 08:39:26;;;;;;;18.55;15.95;;;;;;;9.46;48.87;96276.09;4992156;28;20077;-71
2021/11/23 08:41:51;;;;;;;18.63;16.65;;;;;;;9.79;48.76;96266.72;4992033;28;20930;-70
2021/11/23 08:44:17;;;;;;;17.92;16.13;;;;;;;9.46;48.55;96276.09;4992487;28;20076;-69
2021/11/23 08:46:42;;;;;;;19.67;17.67;;;;;;;9.76;48.27;96254.75;4993217;28;20102;-70
2021/11/23 08:49:07;;;;;;;21.23;17.90;;;;;;;9.51;48.85;96276.88;4996967;28;20423;-70
2021/11/23 08:51:36;;;;;;;18.50;15.52;;;;;;;9.75;48.49;96278.94;4991552;28;20026;-69
2021/11/23 08:54:03;;;;;;;17.23;15.40;;;;;;;9.99;48.22;96271.97;4991959;28;20034;-70
2021/11/23 08:56:34;;;;;;;18.92;16.63;;;;;;;10.08;48.04;96265.03;4992064;28;20023;-69
2021/11/23 08:59:01;;;;;;;18.08;16.17;;;;;;;9.80;47.84;96285.03;4990223;28;20048;-70
2021/11/23 09:01:27;;;;;;;18.38;16.48;;;;;;;10.27;47.88;96275.84;4991182;28;20034;-69
2021/11/23 09:03:54;;;;;;;20.27;17.40;;;;;;;10.62;47.22;96282.03;4995265;28;20026;-69
2021/11/23 09:06:23;;;;;;;18.65;16.30;;;;;;;10.92;46.72;96287.16;4991680;28;20467;-71
2021/11/23 09:09:05;;;;;;;18.38;16.58;;;;;;;10.76;45.78;96266.25;4991804;28;20102;-71
2021/11/23 09:11:30;;;;;;;19.35;17.35;;;;;;;10.53;46.42;96283.69;4991845;28;20400;-70
2021/11/23 09:13:56;;;;;;;19.65;17.65;;;;;;;10.06;47.10;96298.25;4991848;28;20030;-72
2021/11/23 09:16:22;;;;;;;18.70;16.95;;;;;;;10.16;47.25;96285.72;4990266;28;20072;-71
2021/11/23 09:18:50;;;;;;;19.08;17.25;;;;;;;10.74;46.30;96298.44;5001888;28;20034;-71
2021/11/23 09:21:15;;;;;;;19.50;17.40;;;;;;;10.24;46.81;96291.56;4992380;28;20026;-70
2021/11/23 09:23:41;;;;;;;18.83;17.02;;;;;;;10.02;47.46;96294.53;4991309;28;20026;-70
2021/11/23 09:26:09;;;;;;;19.02;17.17;;;;;;;10.66;47.35;96285.75;4991585;28;20041;-71
2021/11/23 09:28:35;;;;;;;17.23;15.60;;;;;;;10.93;45.81;96286.09;4991901;28;20038;-70
2021/11/23 09:31:00;;;;;;;18.48;16.58;;;;;;;11.30;45.52;96292.72;4991069;28;20031;-72
2021/11/23 09:33:25;;;;;;;17.38;15.57;;;;;;;11.44;44.90;96268.88;4994612;28;20038;-71
2021/11/23 09:35:51;;;;;;;16.50;15.00;;;;;;;11.96;44.60;96299.28;4991603;28;20569;-71
2021/11/23 09:38:16;;;;;;;16.95;15.45;;;;;;;12.17;43.50;96289.97;4990859;28;20149;-73
2021/11/23 09:40:42;;;;;;;16.95;15.25;;;;;;;12.35;43.17;96288.41;4991138;28;20026;-72
2021/11/23 09:43:08;;;;;;;17.42;15.73;;;;;;;12.47;42.51;96291.44;4990989;28;20384;-72
2021/11/23 09:45:33;;;;;;;18.73;16.80;;;;;;;12.57;42.51;96295.06;4991204;28;20058;-72
2021/11/23 09:48:09;;;;;;;15.90;14.50;;;;;;;12.35;41.90;96293.75;4994549;28;20029;-73
2021/11/23 09:50:42;;;;;;;16.40;15.00;;;;;;;12.19;42.96;96300.38;4990376;28;20045;-71
2021/11/23 09:53:10;;;;;;;16.83;15.32;;;;;;;12.15;42.59;96294.78;4990438;28;20050;-72
2021/11/23 09:55:37;;;;;;;16.23;14.65;;;;;;;12.04;42.81;96292.53;4991160;28;20034;-72
2021/11/23 09:58:03;;;;;;;15.68;14.27;;;;;;;12.11;42.79;96295.66;4991049;28;20034;-72
2021/11/23 10:00:35;;;;;;;19.75;14.50;;;;;;;12.21;42.41;96280.31;4990426;28;20030;-71
2021/11/23 10:03:15;;;;;;;16.25;14.85;;;;;;;11.93;42.82;96267.88;4993721;28;20022;-71
2021/11/23 10:05:42;;;;;;;16.48;14.77;;;;;;;11.91;43.25;96288.69;4991292;28;20034;-69
2021/11/23 10:08:14;;;;;;;16.10;14.48;;;;;;;11.71;43.95;96292.31;4990626;28;20033;-70
2021/11/23 10:10:40;;;;;;;;;;;;;;;10.71;45.93;96293.69;4990853;28;20030;-71
2021/11/23 10:13:06;;;;;;;18.02;16.23;;;;;;;10.88;45.36;96278.13;4990571;28;19996;-72
2021/11/23 10:15:36;;;;;;;17.42;15.82;;;;;;;10.92;44.60;96286.38;4991003;28;20598;-71
2021/11/23 10:18:10;;;;;;;17.48;15.77;;;;;;;10.91;45.26;96285.56;4992092;28;20507;-71
2021/11/23 10:20:44;;;;;;;16.83;15.43;;;;;;;10.50;46.21;96279.72;4990022;28;20018;-70
2021/11/23 10:23:23;;;;;;;17.38;15.68;;;;;;;10.48;45.95;96278.41;4988838;28;20031;-70
2021/11/23 10:25:53;;;;;;;17.30;15.60;;;;;;;10.87;45.45;96279.22;4990592;28;20026;-71
2021/11/23 10:28:21;;;;;;;16.58;15.18;;;;;;;11.00;45.16;96280.44;4990475;28;20053;-71
2021/11/23 10:30:48;;;;;;;17.10;15.35;;;;;;;10.85;45.52;96277.88;4989994;28;20066;-71
2021/11/23 10:33:16;;;;;;;17.73;16.13;;;;;;;10.83;45.35;96266.72;4988307;28;20710;-71
2021/11/23 10:35:44;;;;;;;17.90;16.20;;;;;;;11.06;44.91;96276.69;4990271;28;20109;-70
2021/11/23 10:38:11;;;;;;;16.75;15.30;;;;;;;10.84;45.30;96284.28;4990463;28;20023;-71
2021/11/23 10:40:38;;;;;;;16.98;15.48;;;;;;;10.33;46.33;96260.66;4988926;28;20022;-70
2021/11/23 10:43:08;;;;;;;15.70;14.40;;;;;;;10.74;45.94;96285.16;4990082;28;20381;-69
2021/11/23 10:45:35;;;;;;;16.70;15.30;;;;;;;10.72;46.01;96266.00;4990754;28;20033;-70
2021/11/23 10:48:03;;;;;;;17.10;15.07;;;;;;;11.28;45.12;96273.56;4993569;28;20066;-71
2021/11/23 10:50:29;;;;;;;14.65;13.35;;;;;;;11.65;44.00;96251.59;4989618;28;20030;-70
2021/11/23 10:53:16;;;;;;;16.05;14.55;;;;;;;11.39;43.92;96269.72;4990104;28;20093;-71
2021/11/23 10:55:44;;;;;;;16.15;14.68;;;;;;;11.49;44.59;96263.50;4989175;28;20022;-70
2021/11/23 10:58:11;;;;;;;15.30;13.95;;;;;;;11.28;44.31;96275.44;4988862;28;20025;-70
2021/11/23 11:00:40;;;;;;;16.05;14.55;;;;;;;11.51;44.22;96253.34;4989012;28;20444;-70
2021/11/23 11:03:07;;;;;;;15.60;14.25;;;;;;;11.44;44.18;96277.66;4993423;28;20026;-70
2021/11/23 11:05:35;;;;;;;16.45;14.80;;;;;;;10.91;45.47;96274.13;4990752;28;20085;-69
2021/11/23 11:08:01;;;;;;;17.85;14.60;;;;;;;10.80;45.10;96268.09;4990644;28;20034;-70
2021/11/23 11:10:29;;;;;;;16.02;14.65;;;;;;;10.74;45.94;96268.38;4990462;28;20105;-71
2021/11/23 11:12:55;;;;;;;17.42;15.55;;;;;;;10.91;45.71;96266.94;4990398;28;20037;-70
2021/11/23 11:15:33;;;;;;;16.65;14.80;;;;;;;11.15;44.84;96264.34;4990364;28;20050;-70
2021/11/23 11:18:01;;;;;;;16.10;14.70;;;;;;;11.37;44.42;96266.56;4993378;28;20018;-70
2021/11/23 11:20:37;;;;;;;16.33;14.93;;;;;;;11.50;44.24;96266.97;4989234;28;20061;-70